sensor_id;sensor_type;location;lat;lon;timestamp;pressure;altitude;pressure_sealevel;temperature;humidity
6216;BME280;3141;49.234;9.326;2024-03-17T00:00:12;100454.03;;;9.83;88.46
6216;BME280;3141;49.234;9.326;2024-03-17T00:01:01;100450.16;;;9.87;88.69
6216;BME280;3141;49.234;9.326;2024-03-17T00:01:44;100446.63;;;9.77;88.67
6216;BME280;3141;49.234;9.326;2024-03-17T00:02:26;100441.81;;;9.82;88.49
6216;BME280;3141;49.234;9.326;2024-03-17T00:03:09;100444.59;;;9.90;88.06
6216;BME280;3141;49.234;9.326;2024-03-17T00:03:51;100446.13;;;9.92;88.02
6216;BME280;3141;49.234;9.326;2024-03-17T00:04:33;100447.53;;;9.87;87.97
6216;BME280;3141;49.234;9.326;2024-03-17T00:05:16;100452.94;;;9.85;87.47
6216;BME280;3141;49.234;9.326;2024-03-17T00:06:01;100455.69;;;9.84;87.57
6216;BME280;3141;49.234;9.326;2024-03-17T00:06:43;100452.81;;;9.87;87.59
6216;BME280;3141;49.234;9.326;2024-03-17T00:07:25;100452.09;;;9.85;87.24
6216;BME280;3141;49.234;9.326;2024-03-17T00:08:08;100455.16;;;9.90;87.32
6216;BME280;3141;49.234;9.326;2024-03-17T00:08:50;100452.97;;;9.95;87.48
6216;BME280;3141;49.234;9.326;2024-03-17T00:09:33;100453.94;;;9.94;87.23
6216;BME280;3141;49.234;9.326;2024-03-17T00:10:15;100462.38;;;9.88;87.24
6216;BME280;3141;49.234;9.326;2024-03-17T00:10:57;100451.78;;;9.78;87.42
6216;BME280;3141;49.234;9.326;2024-03-17T00:11:40;100446.88;;;9.74;87.98
6216;BME280;3141;49.234;9.326;2024-03-17T00:12:22;100438.03;;;9.75;88.20
6216;BME280;3141;49.234;9.326;2024-03-17T00:13:04;100442.19;;;9.77;87.96
6216;BME280;3141;49.234;9.326;2024-03-17T00:13:47;100450.69;;;9.81;87.96
6216;BME280;3141;49.234;9.326;2024-03-17T00:14:29;100450.41;;;9.84;87.76
6216;BME280;3141;49.234;9.326;2024-03-17T00:15:11;100444.03;;;9.86;87.58
6216;BME280;3141;49.234;9.326;2024-03-17T00:15:54;100446.09;;;9.83;87.54
6216;BME280;3141;49.234;9.326;2024-03-17T00:16:37;100445.41;;;9.81;87.48
6216;BME280;3141;49.234;9.326;2024-03-17T00:17:19;100444.13;;;9.75;87.77
6216;BME280;3141;49.234;9.326;2024-03-17T00:18:03;100449.81;;;9.71;88.32
6216;BME280;3141;49.234;9.326;2024-03-17T00:18:46;100448.13;;;9.70;88.53
6216;BME280;3141;49.234;9.326;2024-03-17T00:19:28;100445.38;;;9.71;88.42
6216;BME280;3141;49.234;9.326;2024-03-17T00:20:11;100452.59;;;9.79;88.02
6216;BME280;3141;49.234;9.326;2024-03-17T00:21:02;100449.41;;;9.75;87.48
6216;BME280;3141;49.234;9.326;2024-03-17T00:21:44;100450.38;;;9.74;87.81
6216;BME280;3141;49.234;9.326;2024-03-17T00:22:26;100450.66;;;9.71;87.77
6216;BME280;3141;49.234;9.326;2024-03-17T00:23:09;100454.09;;;9.72;87.90
6216;BME280;3141;49.234;9.326;2024-03-17T00:23:53;100451.22;;;9.75;87.92
6216;BME280;3141;49.234;9.326;2024-03-17T00:24:36;100455.59;;;9.65;87.86
6216;BME280;3141;49.234;9.326;2024-03-17T00:25:18;100446.06;;;9.53;88.37
6216;BME280;3141;49.234;9.326;2024-03-17T00:26:01;100452.88;;;9.46;88.86
6216;BME280;3141;49.234;9.326;2024-03-17T00:26:43;100454.94;;;9.42;88.98
6216;BME280;3141;49.234;9.326;2024-03-17T00:27:26;100451.00;;;9.37;89.29
6216;BME280;3141;49.234;9.326;2024-03-17T00:28:09;100446.81;;;9.34;89.83
6216;BME280;3141;49.234;9.326;2024-03-17T00:28:51;100445.13;;;9.33;90.42
6216;BME280;3141;49.234;9.326;2024-03-17T00:29:34;100447.47;;;9.26;90.47
6216;BME280;3141;49.234;9.326;2024-03-17T00:30:16;100443.97;;;9.26;90.72
6216;BME280;3141;49.234;9.326;2024-03-17T00:30:58;100443.84;;;9.27;90.90
6216;BME280;3141;49.234;9.326;2024-03-17T00:31:42;100443.34;;;9.33;90.84
6216;BME280;3141;49.234;9.326;2024-03-17T00:32:24;100450.03;;;9.38;90.32
6216;BME280;3141;49.234;9.326;2024-03-17T00:33:06;100447.66;;;9.34;90.32
6216;BME280;3141;49.234;9.326;2024-03-17T00:33:52;100447.91;;;9.31;90.12
6216;BME280;3141;49.234;9.326;2024-03-17T00:34:35;100437.09;;;9.34;90.49
6216;BME280;3141;49.234;9.326;2024-03-17T00:35:17;100443.53;;;9.42;90.12
6216;BME280;3141;49.234;9.326;2024-03-17T00:36:02;100441.25;;;9.37;89.94
6216;BME280;3141;49.234;9.326;2024-03-17T00:36:45;100439.56;;;9.26;89.94
6216;BME280;3141;49.234;9.326;2024-03-17T00:37:27;100445.78;;;9.25;89.98
6216;BME280;3141;49.234;9.326;2024-03-17T00:38:10;100445.31;;;9.20;89.66
6216;BME280;3141;49.234;9.326;2024-03-17T00:38:53;100444.75;;;9.17;90.07
6216;BME280;3141;49.234;9.326;2024-03-17T00:39:35;100447.91;;;9.11;90.35
6216;BME280;3141;49.234;9.326;2024-03-17T00:40:18;100438.19;;;9.11;90.04
6216;BME280;3141;49.234;9.326;2024-03-17T00:41:02;100444.69;;;9.07;89.98
6216;BME280;3141;49.234;9.326;2024-03-17T00:41:45;100446.63;;;9.05;90.60
6216;BME280;3141;49.234;9.326;2024-03-17T00:42:27;100442.69;;;9.00;90.66
6216;BME280;3141;49.234;9.326;2024-03-17T00:43:09;100443.38;;;9.02;90.58
6216;BME280;3141;49.234;9.326;2024-03-17T00:43:53;100440.34;;;9.06;90.49
6216;BME280;3141;49.234;9.326;2024-03-17T00:44:36;100444.69;;;9.07;90.08
6216;BME280;3141;49.234;9.326;2024-03-17T00:45:18;100434.38;;;9.04;89.79
6216;BME280;3141;49.234;9.326;2024-03-17T00:46:00;100431.63;;;9.06;89.50
6216;BME280;3141;49.234;9.326;2024-03-17T00:46:43;100428.41;;;9.02;89.66
6216;BME280;3141;49.234;9.326;2024-03-17T00:47:25;100436.31;;;9.02;89.79
6216;BME280;3141;49.234;9.326;2024-03-17T00:48:08;100424.34;;;8.98;89.67
6216;BME280;3141;49.234;9.326;2024-03-17T00:48:51;100434.91;;;8.98;89.38
6216;BME280;3141;49.234;9.326;2024-03-17T00:49:34;100429.50;;;9.00;89.47
6216;BME280;3141;49.234;9.326;2024-03-17T00:50:16;100419.91;;;8.99;89.82
6216;BME280;3141;49.234;9.326;2024-03-17T00:50:58;100420.50;;;9.02;89.62
6216;BME280;3141;49.234;9.326;2024-03-17T00:51:41;100424.75;;;9.14;89.45
6216;BME280;3141;49.234;9.326;2024-03-17T00:52:24;100425.13;;;9.10;89.21
6216;BME280;3141;49.234;9.326;2024-03-17T00:53:07;100420.69;;;9.10;89.27
6216;BME280;3141;49.234;9.326;2024-03-17T00:53:50;100419.97;;;9.08;89.15
6216;BME280;3141;49.234;9.326;2024-03-17T00:54:33;100419.25;;;9.06;89.17
6216;BME280;3141;49.234;9.326;2024-03-17T00:55:15;100419.72;;;9.11;89.21
6216;BME280;3141;49.234;9.326;2024-03-17T00:55:57;100421.13;;;9.15;88.70
6216;BME280;3141;49.234;9.326;2024-03-17T00:56:40;100412.50;;;9.13;88.68
6216;BME280;3141;49.234;9.326;2024-03-17T00:57:22;100422.69;;;9.18;88.38
6216;BME280;3141;49.234;9.326;2024-03-17T00:58:05;100413.72;;;9.09;88.84
6216;BME280;3141;49.234;9.326;2024-03-17T00:58:48;100414.97;;;9.05;88.95
6216;BME280;3141;49.234;9.326;2024-03-17T00:59:33;100405.50;;;9.03;89.47
6216;BME280;3141;49.234;9.326;2024-03-17T01:00:16;100408.84;;;9.05;89.60
6216;BME280;3141;49.234;9.326;2024-03-17T01:00:58;100404.69;;;9.02;89.46
6216;BME280;3141;49.234;9.326;2024-03-17T01:01:40;100408.84;;;9.05;89.16
6216;BME280;3141;49.234;9.326;2024-03-17T01:02:23;100402.72;;;9.04;89.09
6216;BME280;3141;49.234;9.326;2024-03-17T01:03:05;100402.63;;;9.06;88.76
6216;BME280;3141;49.234;9.326;2024-03-17T01:03:47;100408.53;;;8.98;89.10
6216;BME280;3141;49.234;9.326;2024-03-17T01:04:30;100402.41;;;8.98;88.96
6216;BME280;3141;49.234;9.326;2024-03-17T01:05:16;100405.88;;;8.98;89.18
6216;BME280;3141;49.234;9.326;2024-03-17T01:05:58;100403.84;;;9.02;89.09
6216;BME280;3141;49.234;9.326;2024-03-17T01:06:40;100395.53;;;9.06;88.89
6216;BME280;3141;49.234;9.326;2024-03-17T01:07:23;100398.56;;;9.02;88.88
6216;BME280;3141;49.234;9.326;2024-03-17T01:08:05;100398.69;;;9.00;88.75
6216;BME280;3141;49.234;9.326;2024-03-17T01:08:53;100391.72;;;8.99;88.70
6216;BME280;3141;49.234;9.326;2024-03-17T01:09:41;100397.97;;;8.98;88.58
6216;BME280;3141;49.234;9.326;2024-03-17T01:10:23;100398.09;;;8.97;88.82
6216;BME280;3141;49.234;9.326;2024-03-17T01:11:05;100397.72;;;9.01;88.85
6216;BME280;3141;49.234;9.326;2024-03-17T01:11:50;100388.78;;;8.93;88.68
6216;BME280;3141;49.234;9.326;2024-03-17T01:12:33;100387.25;;;8.90;88.94
6216;BME280;3141;49.234;9.326;2024-03-17T01:13:16;100394.19;;;8.91;88.74
6216;BME280;3141;49.234;9.326;2024-03-17T01:13:58;100392.28;;;8.82;89.00
6216;BME280;3141;49.234;9.326;2024-03-17T01:14:40;100394.22;;;8.80;89.47
6216;BME280;3141;49.234;9.326;2024-03-17T01:15:23;100397.13;;;8.77;89.27
6216;BME280;3141;49.234;9.326;2024-03-17T01:16:05;100396.84;;;8.80;89.52
6216;BME280;3141;49.234;9.326;2024-03-17T01:16:47;100397.84;;;8.79;89.41
6216;BME280;3141;49.234;9.326;2024-03-17T01:17:30;100399.34;;;8.82;89.37
6216;BME280;3141;49.234;9.326;2024-03-17T01:18:12;100392.44;;;8.81;89.01
6216;BME280;3141;49.234;9.326;2024-03-17T01:18:54;100390.63;;;8.81;89.14
6216;BME280;3141;49.234;9.326;2024-03-17T01:19:37;100394.66;;;8.85;88.93
6216;BME280;3141;49.234;9.326;2024-03-17T01:20:19;100394.19;;;8.91;88.67
6216;BME280;3141;49.234;9.326;2024-03-17T01:21:01;100402.09;;;8.91;88.36
6216;BME280;3141;49.234;9.326;2024-03-17T01:21:44;100388.47;;;8.86;88.08
6216;BME280;3141;49.234;9.326;2024-03-17T01:22:26;100400.44;;;8.90;88.27
6216;BME280;3141;49.234;9.326;2024-03-17T01:23:08;100396.81;;;8.91;87.86
6216;BME280;3141;49.234;9.326;2024-03-17T01:23:51;100397.97;;;8.98;87.95
6216;BME280;3141;49.234;9.326;2024-03-17T01:24:33;100393.16;;;9.03;87.50
6216;BME280;3141;49.234;9.326;2024-03-17T01:25:16;100396.50;;;9.05;87.02
6216;BME280;3141;49.234;9.326;2024-03-17T01:25:58;100393.59;;;9.08;87.05
6216;BME280;3141;49.234;9.326;2024-03-17T01:26:41;100393.19;;;8.92;87.14
6216;BME280;3141;49.234;9.326;2024-03-17T01:27:23;100387.25;;;8.90;87.59
6216;BME280;3141;49.234;9.326;2024-03-17T01:28:06;100392.28;;;8.82;88.02
6216;BME280;3141;49.234;9.326;2024-03-17T01:28:48;100385.38;;;8.81;88.21
6216;BME280;3141;49.234;9.326;2024-03-17T01:29:30;100383.94;;;8.77;88.60
6216;BME280;3141;49.234;9.326;2024-03-17T01:30:13;100389.66;;;8.82;88.53
6216;BME280;3141;49.234;9.326;2024-03-17T01:30:55;100390.31;;;8.75;88.81
6216;BME280;3141;49.234;9.326;2024-03-17T01:31:37;100383.69;;;8.80;88.99
6216;BME280;3141;49.234;9.326;2024-03-17T01:32:20;100385.09;;;8.84;88.93
6216;BME280;3141;49.234;9.326;2024-03-17T01:33:02;100380.81;;;8.83;88.61
6216;BME280;3141;49.234;9.326;2024-03-17T01:33:46;100381.50;;;8.85;88.39
6216;BME280;3141;49.234;9.326;2024-03-17T01:34:28;100380.53;;;8.86;88.37
6216;BME280;3141;49.234;9.326;2024-03-17T01:35:11;100384.03;;;8.87;88.42
6216;BME280;3141;49.234;9.326;2024-03-17T01:35:54;100384.84;;;8.87;88.17
6216;BME280;3141;49.234;9.326;2024-03-17T01:36:36;100382.66;;;8.92;88.38
6216;BME280;3141;49.234;9.326;2024-03-17T01:37:18;100386.53;;;8.88;88.16
6216;BME280;3141;49.234;9.326;2024-03-17T01:38:00;100381.25;;;8.88;88.11
6216;BME280;3141;49.234;9.326;2024-03-17T01:38:43;100379.34;;;8.90;88.33
6216;BME280;3141;49.234;9.326;2024-03-17T01:39:25;100384.78;;;8.98;88.08
6216;BME280;3141;49.234;9.326;2024-03-17T01:40:08;100379.25;;;9.01;87.45
6216;BME280;3141;49.234;9.326;2024-03-17T01:40:51;100377.59;;;9.00;87.27
6216;BME280;3141;49.234;9.326;2024-03-17T01:41:33;100375.28;;;9.07;87.09
6216;BME280;3141;49.234;9.326;2024-03-17T01:42:16;100374.16;;;9.09;87.07
6216;BME280;3141;49.234;9.326;2024-03-17T01:42:58;100376.94;;;9.08;86.79
6216;BME280;3141;49.234;9.326;2024-03-17T01:43:40;100370.63;;;8.99;86.74
6216;BME280;3141;49.234;9.326;2024-03-17T01:44:24;100375.53;;;9.04;86.44
6216;BME280;3141;49.234;9.326;2024-03-17T01:46:14;100371.06;;;9.04;86.56
6216;BME280;3141;49.234;9.326;2024-03-17T01:46:57;100369.41;;;9.03;86.67
6216;BME280;3141;49.234;9.326;2024-03-17T01:47:40;100367.22;;;9.08;86.28
6216;BME280;3141;49.234;9.326;2024-03-17T01:48:22;100365.69;;;9.06;86.32
6216;BME280;3141;49.234;9.326;2024-03-17T01:49:04;100368.88;;;9.09;85.85
6216;BME280;3141;49.234;9.326;2024-03-17T01:49:50;100369.00;;;9.08;86.67
6216;BME280;3141;49.234;9.326;2024-03-17T01:50:37;100369.34;;;8.94;87.19
6216;BME280;3141;49.234;9.326;2024-03-17T01:51:20;100364.84;;;8.85;88.16
6216;BME280;3141;49.234;9.326;2024-03-17T01:52:03;100360.94;;;8.79;88.73
6216;BME280;3141;49.234;9.326;2024-03-17T01:52:47;100368.31;;;8.85;88.67
6216;BME280;3141;49.234;9.326;2024-03-17T01:53:31;100362.44;;;8.82;88.86
6216;BME280;3141;49.234;9.326;2024-03-17T01:54:14;100359.94;;;8.80;89.06
6216;BME280;3141;49.234;9.326;2024-03-17T01:54:57;100363.03;;;8.85;88.98
6216;BME280;3141;49.234;9.326;2024-03-17T01:55:40;100364.13;;;8.83;88.54
6216;BME280;3141;49.234;9.326;2024-03-17T01:56:24;100362.59;;;8.80;89.13
6216;BME280;3141;49.234;9.326;2024-03-17T01:57:06;100359.81;;;8.82;89.00
6216;BME280;3141;49.234;9.326;2024-03-17T01:57:50;100364.00;;;8.84;88.69
6216;BME280;3141;49.234;9.326;2024-03-17T01:58:32;100361.81;;;8.89;88.24
6216;BME280;3141;49.234;9.326;2024-03-17T01:59:15;100361.09;;;8.87;88.05
6216;BME280;3141;49.234;9.326;2024-03-17T01:59:58;100365.88;;;8.93;87.80
6216;BME280;3141;49.234;9.326;2024-03-17T02:00:40;100364.31;;;8.91;87.45
6216;BME280;3141;49.234;9.326;2024-03-17T02:01:22;100360.63;;;8.93;87.40
6216;BME280;3141;49.234;9.326;2024-03-17T02:02:05;100361.44;;;8.94;86.97
6216;BME280;3141;49.234;9.326;2024-03-17T02:02:47;100364.63;;;8.97;86.61
6216;BME280;3141;49.234;9.326;2024-03-17T02:03:30;100362.84;;;8.98;86.67
6216;BME280;3141;49.234;9.326;2024-03-17T02:04:13;100358.25;;;8.90;86.57
6216;BME280;3141;49.234;9.326;2024-03-17T02:04:55;100357.75;;;8.85;86.89
6216;BME280;3141;49.234;9.326;2024-03-17T02:05:41;100359.28;;;8.78;87.01
6216;BME280;3141;49.234;9.326;2024-03-17T02:06:23;100359.00;;;8.81;87.08
6216;BME280;3141;49.234;9.326;2024-03-17T02:07:06;100356.38;;;8.81;87.05
6216;BME280;3141;49.234;9.326;2024-03-17T02:07:48;100363.03;;;8.85;87.25
6216;BME280;3141;49.234;9.326;2024-03-17T02:08:48;100360.09;;;8.79;87.54
6216;BME280;3141;49.234;9.326;2024-03-17T02:09:34;100361.91;;;8.78;87.80
6216;BME280;3141;49.234;9.326;2024-03-17T02:10:16;100360.66;;;8.82;87.09
6216;BME280;3141;49.234;9.326;2024-03-17T02:10:58;100362.84;;;8.77;87.30
6216;BME280;3141;49.234;9.326;2024-03-17T02:11:41;100360.66;;;8.82;87.28
6216;BME280;3141;49.234;9.326;2024-03-17T02:12:25;100366.50;;;8.86;87.23
6216;BME280;3141;49.234;9.326;2024-03-17T02:13:07;100365.47;;;8.77;87.54
6216;BME280;3141;49.234;9.326;2024-03-17T02:13:50;100364.53;;;8.78;87.65
6216;BME280;3141;49.234;9.326;2024-03-17T02:14:32;100370.38;;;8.82;87.27
6216;BME280;3141;49.234;9.326;2024-03-17T02:15:15;100358.56;;;8.76;87.56
6216;BME280;3141;49.234;9.326;2024-03-17T02:15:57;100366.59;;;8.75;87.94
6216;BME280;3141;49.234;9.326;2024-03-17T02:16:40;100356.41;;;8.70;88.38
6216;BME280;3141;49.234;9.326;2024-03-17T02:17:22;100359.44;;;8.66;88.30
6216;BME280;3141;49.234;9.326;2024-03-17T02:18:07;100360.50;;;8.63;88.89
6216;BME280;3141;49.234;9.326;2024-03-17T02:18:54;100360.50;;;8.63;89.09
6216;BME280;3141;49.234;9.326;2024-03-17T02:19:37;100361.22;;;8.65;88.79
6216;BME280;3141;49.234;9.326;2024-03-17T02:20:19;100357.44;;;8.58;89.08
6216;BME280;3141;49.234;9.326;2024-03-17T02:21:02;100361.03;;;8.57;89.44
6216;BME280;3141;49.234;9.326;2024-03-17T02:21:44;100360.78;;;8.60;89.50
6216;BME280;3141;49.234;9.326;2024-03-17T02:22:27;100357.75;;;8.65;89.46
6216;BME280;3141;49.234;9.326;2024-03-17T02:23:12;100367.78;;;8.71;88.73
6216;BME280;3141;49.234;9.326;2024-03-17T02:23:54;100361.41;;;8.73;88.60
6216;BME280;3141;49.234;9.326;2024-03-17T02:24:37;100362.53;;;8.71;88.68
6216;BME280;3141;49.234;9.326;2024-03-17T02:25:20;100357.13;;;8.72;88.75
6216;BME280;3141;49.234;9.326;2024-03-17T02:26:02;100359.50;;;8.75;88.29
6216;BME280;3141;49.234;9.326;2024-03-17T02:26:45;100352.56;;;8.74;87.92
6216;BME280;3141;49.234;9.326;2024-03-17T02:27:28;100355.19;;;8.74;88.00
6216;BME280;3141;49.234;9.326;2024-03-17T02:28:11;100353.41;;;8.75;88.07
6216;BME280;3141;49.234;9.326;2024-03-17T02:28:53;100360.59;;;8.73;87.94
6216;BME280;3141;49.234;9.326;2024-03-17T02:29:36;100353.50;;;8.73;87.70
6216;BME280;3141;49.234;9.326;2024-03-17T02:30:18;100357.00;;;8.74;87.85
6216;BME280;3141;49.234;9.326;2024-03-17T02:31:01;100356.41;;;8.70;87.78
6216;BME280;3141;49.234;9.326;2024-03-17T02:31:44;100347.56;;;8.71;87.88
6216;BME280;3141;49.234;9.326;2024-03-17T02:32:26;100355.25;;;8.63;88.15
6216;BME280;3141;49.234;9.326;2024-03-17T02:33:09;100350.28;;;8.70;87.36
6216;BME280;3141;49.234;9.326;2024-03-17T02:33:52;100349.47;;;8.69;87.12
6216;BME280;3141;49.234;9.326;2024-03-17T02:34:34;100348.38;;;8.72;86.80
6216;BME280;3141;49.234;9.326;2024-03-17T02:35:18;100349.03;;;8.64;86.70
6216;BME280;3141;49.234;9.326;2024-03-17T02:36:01;100352.47;;;8.65;86.74
6216;BME280;3141;49.234;9.326;2024-03-17T02:36:43;100349.97;;;8.63;86.77
6216;BME280;3141;49.234;9.326;2024-03-17T02:37:25;100342.91;;;8.64;86.74
6216;BME280;3141;49.234;9.326;2024-03-17T02:38:15;100348.06;;;8.65;86.87
6216;BME280;3141;49.234;9.326;2024-03-17T02:39:18;100345.16;;;8.68;86.95
6216;BME280;3141;49.234;9.326;2024-03-17T02:40:18;100344.22;;;8.69;86.43
6216;BME280;3141;49.234;9.326;2024-03-17T02:41:01;100351.78;;;8.63;86.82
6216;BME280;3141;49.234;9.326;2024-03-17T02:41:43;100348.34;;;8.51;87.60
6216;BME280;3141;49.234;9.326;2024-03-17T02:42:26;100346.94;;;8.47;87.97
6216;BME280;3141;49.234;9.326;2024-03-17T02:43:08;100343.09;;;8.51;88.15
6216;BME280;3141;49.234;9.326;2024-03-17T02:43:50;100345.72;;;8.51;88.21
6216;BME280;3141;49.234;9.326;2024-03-17T02:44:34;100341.34;;;8.61;88.32
6216;BME280;3141;49.234;9.326;2024-03-17T02:45:17;100345.81;;;8.61;87.89
6216;BME280;3141;49.234;9.326;2024-03-17T02:46:00;100339.97;;;8.57;87.82
6216;BME280;3141;49.234;9.326;2024-03-17T02:46:46;100346.88;;;8.58;88.09
6216;BME280;3141;49.234;9.326;2024-03-17T02:47:29;100338.03;;;8.59;87.79
6216;BME280;3141;49.234;9.326;2024-03-17T02:48:12;100338.97;;;8.58;87.92
6216;BME280;3141;49.234;9.326;2024-03-17T02:48:54;100338.25;;;8.56;87.77
6216;BME280;3141;49.234;9.326;2024-03-17T02:49:36;100341.88;;;8.55;87.91
6216;BME280;3141;49.234;9.326;2024-03-17T02:50:19;100334.41;;;8.60;87.64
6216;BME280;3141;49.234;9.326;2024-03-17T02:51:02;100344.25;;;8.58;87.42
6216;BME280;3141;49.234;9.326;2024-03-17T02:51:44;100338.13;;;8.58;87.22
6216;BME280;3141;49.234;9.326;2024-03-17T02:52:26;100339.97;;;8.57;87.23
6216;BME280;3141;49.234;9.326;2024-03-17T02:53:09;100343.53;;;8.56;87.05
6216;BME280;3141;49.234;9.326;2024-03-17T02:53:51;100351.00;;;8.51;87.31
6216;BME280;3141;49.234;9.326;2024-03-17T02:54:33;100344.06;;;8.50;87.28
6216;BME280;3141;49.234;9.326;2024-03-17T02:55:17;100343.47;;;8.47;87.42
6216;BME280;3141;49.234;9.326;2024-03-17T02:55:59;100347.06;;;8.46;87.47
6216;BME280;3141;49.234;9.326;2024-03-17T02:56:42;100347.75;;;8.48;87.08
6216;BME280;3141;49.234;9.326;2024-03-17T02:57:25;100344.53;;;8.44;86.99
6216;BME280;3141;49.234;9.326;2024-03-17T02:58:11;100340.97;;;8.45;87.20
6216;BME280;3141;49.234;9.326;2024-03-17T02:58:53;100345.38;;;8.45;87.05
6216;BME280;3141;49.234;9.326;2024-03-17T02:59:36;100342.69;;;8.35;87.11
6216;BME280;3141;49.234;9.326;2024-03-17T03:00:18;100343.50;;;8.36;87.94
6216;BME280;3141;49.234;9.326;2024-03-17T03:01:03;100333.09;;;8.34;87.76
6216;BME280;3141;49.234;9.326;2024-03-17T03:01:46;100341.00;;;8.34;87.62
6216;BME280;3141;49.234;9.326;2024-03-17T03:02:28;100342.09;;;8.32;87.63
6216;BME280;3141;49.234;9.326;2024-03-17T03:03:11;100333.84;;;8.25;87.98
6216;BME280;3141;49.234;9.326;2024-03-17T03:03:53;100335.53;;;8.26;88.08
6216;BME280;3141;49.234;9.326;2024-03-17T03:04:35;100328.56;;;8.25;88.05
6216;BME280;3141;49.234;9.326;2024-03-17T03:05:18;100328.56;;;8.25;88.07
6216;BME280;3141;49.234;9.326;2024-03-17T03:06:00;100331.22;;;8.25;88.00
6216;BME280;3141;49.234;9.326;2024-03-17T03:06:46;100335.00;;;8.32;87.60
6216;BME280;3141;49.234;9.326;2024-03-17T03:07:30;100332.38;;;8.32;87.47
6216;BME280;3141;49.234;9.326;2024-03-17T03:08:12;100330.97;;;8.28;87.31
6216;BME280;3141;49.234;9.326;2024-03-17T03:08:55;100327.81;;;8.34;87.10
6216;BME280;3141;49.234;9.326;2024-03-17T03:09:37;100333.56;;;8.39;87.00
6216;BME280;3141;49.234;9.326;2024-03-17T03:10:20;100332.84;;;8.37;86.50
6216;BME280;3141;49.234;9.326;2024-03-17T03:11:03;100331.44;;;8.33;86.54
6216;BME280;3141;49.234;9.326;2024-03-17T03:11:46;100329.75;;;8.32;86.11
6216;BME280;3141;49.234;9.326;2024-03-17T03:12:33;100325.44;;;8.31;86.48
6216;BME280;3141;49.234;9.326;2024-03-17T03:13:16;100332.50;;;8.31;86.81
6216;BME280;3141;49.234;9.326;2024-03-17T03:13:58;100330.84;;;8.30;86.62
6216;BME280;3141;49.234;9.326;2024-03-17T03:14:40;100334.44;;;8.29;86.70
6216;BME280;3141;49.234;9.326;2024-03-17T03:15:23;100334.69;;;8.26;86.85
6216;BME280;3141;49.234;9.326;2024-03-17T03:16:10;100330.50;;;8.23;86.96
6216;BME280;3141;49.234;9.326;2024-03-17T03:16:53;100332.28;;;8.23;86.95
6216;BME280;3141;49.234;9.326;2024-03-17T03:17:35;100333.47;;;8.30;87.31
6216;BME280;3141;49.234;9.326;2024-03-17T03:18:18;100335.16;;;8.19;87.35
6216;BME280;3141;49.234;9.326;2024-03-17T03:19:00;100332.28;;;8.11;88.21
6216;BME280;3141;49.234;9.326;2024-03-17T03:19:42;100335.06;;;8.10;88.68
6216;BME280;3141;49.234;9.326;2024-03-17T03:20:25;100336.03;;;8.09;89.09
6216;BME280;3141;49.234;9.326;2024-03-17T03:21:07;100334.00;;;8.12;89.25
6216;BME280;3141;49.234;9.326;2024-03-17T03:21:50;100335.91;;;8.10;89.28
6216;BME280;3141;49.234;9.326;2024-03-17T03:22:32;100329.53;;;8.13;89.52
6216;BME280;3141;49.234;9.326;2024-03-17T03:23:15;100327.63;;;8.15;89.20
6216;BME280;3141;49.234;9.326;2024-03-17T03:23:57;100329.66;;;8.23;89.26
6216;BME280;3141;49.234;9.326;2024-03-17T03:24:39;100331.44;;;8.22;88.87
6216;BME280;3141;49.234;9.326;2024-03-17T03:25:21;100330.59;;;8.21;88.83
6216;BME280;3141;49.234;9.326;2024-03-17T03:26:04;100336.47;;;8.25;88.24
6216;BME280;3141;49.234;9.326;2024-03-17T03:26:46;100331.56;;;8.20;88.25
6216;BME280;3141;49.234;9.326;2024-03-17T03:27:30;100334.69;;;8.26;88.21
6216;BME280;3141;49.234;9.326;2024-03-17T03:28:13;100333.63;;;8.28;87.94
6216;BME280;3141;49.234;9.326;2024-03-17T03:28:55;100333.63;;;8.28;87.63
6216;BME280;3141;49.234;9.326;2024-03-17T03:29:37;100334.28;;;8.30;87.63
6216;BME280;3141;49.234;9.326;2024-03-17T03:30:20;100342.78;;;8.34;87.78
6216;BME280;3141;49.234;9.326;2024-03-17T03:31:03;100338.63;;;8.31;87.51
6216;BME280;3141;49.234;9.326;2024-03-17T03:31:45;100335.59;;;8.36;87.41
6216;BME280;3141;49.234;9.326;2024-03-17T03:32:28;100335.47;;;8.37;87.20
6216;BME280;3141;49.234;9.326;2024-03-17T03:33:10;100337.16;;;8.38;87.11
6216;BME280;3141;49.234;9.326;2024-03-17T03:33:52;100339.78;;;8.38;86.85
6216;BME280;3141;49.234;9.326;2024-03-17T03:34:35;100333.09;;;8.34;86.80
6216;BME280;3141;49.234;9.326;2024-03-17T03:35:17;100339.22;;;8.35;86.70
6216;BME280;3141;49.234;9.326;2024-03-17T03:36:07;100333.94;;;8.35;86.64
6216;BME280;3141;49.234;9.326;2024-03-17T03:36:49;100335.72;;;8.34;86.78
6216;BME280;3141;49.234;9.326;2024-03-17T03:37:32;100335.59;;;8.36;86.48
6216;BME280;3141;49.234;9.326;2024-03-17T03:38:14;100341.00;;;8.34;86.31
6216;BME280;3141;49.234;9.326;2024-03-17T03:38:57;100340.06;;;8.35;86.47
6216;BME280;3141;49.234;9.326;2024-03-17T03:39:40;100335.00;;;8.32;86.54
6216;BME280;3141;49.234;9.326;2024-03-17T03:40:23;100331.44;;;8.33;86.41
6216;BME280;3141;49.234;9.326;2024-03-17T03:41:11;100330.00;;;8.29;86.49
6216;BME280;3141;49.234;9.326;2024-03-17T03:41:54;100333.97;;;8.24;86.62
6216;BME280;3141;49.234;9.326;2024-03-17T03:42:37;100335.97;;;8.20;86.83
6216;BME280;3141;49.234;9.326;2024-03-17T03:43:19;100334.31;;;8.19;86.97
6216;BME280;3141;49.234;9.326;2024-03-17T03:44:01;100333.47;;;8.18;87.05
6216;BME280;3141;49.234;9.326;2024-03-17T03:44:46;100330.97;;;8.17;87.17
6216;BME280;3141;49.234;9.326;2024-03-17T03:45:31;100336.97;;;8.19;86.90
6216;BME280;3141;49.234;9.326;2024-03-17T03:46:13;100329.06;;;8.19;87.01
6216;BME280;3141;49.234;9.326;2024-03-17T03:46:56;100331.81;;;8.17;86.71
6216;BME280;3141;49.234;9.326;2024-03-17T03:47:44;100333.72;;;8.15;86.57
6216;BME280;3141;49.234;9.326;2024-03-17T03:48:26;100325.00;;;8.15;87.25
6216;BME280;3141;49.234;9.326;2024-03-17T03:49:08;100326.91;;;8.13;87.04
6216;BME280;3141;49.234;9.326;2024-03-17T03:49:52;100333.16;;;8.12;87.04
6216;BME280;3141;49.234;9.326;2024-03-17T03:50:35;100333.41;;;8.09;87.24
6216;BME280;3141;49.234;9.326;2024-03-17T03:51:17;100324.19;;;8.03;87.56
6216;BME280;3141;49.234;9.326;2024-03-17T03:52:00;100330.06;;;7.96;87.91
6216;BME280;3141;49.234;9.326;2024-03-17T03:52:43;100329.34;;;7.94;88.22
6216;BME280;3141;49.234;9.326;2024-03-17T03:53:25;100330.19;;;7.94;87.91
6216;BME280;3141;49.234;9.326;2024-03-17T03:54:08;100329.34;;;7.94;88.11
6216;BME280;3141;49.234;9.326;2024-03-17T03:54:53;100330.78;;;7.98;87.92
6216;BME280;3141;49.234;9.326;2024-03-17T03:55:37;100328.03;;;7.99;87.79